Terminal Aerodrome Forecast
Issued by NWS Omaha/Valley, NE

Home | Current Version | Previous Version | Graphics & Text | Print | Product List | Glossary On
Versions: 1 2 3 4 5 6 7 8 9 10 11 12 13 14 15 16 17
000
FTUS43 KOAX 211127
TAFOFK
TAF
KOFK 211127Z 2112/2212 11007KT P6SM SCT250
     FM212100 19012KT P6SM VCSH SCT150
     FM212300 23008KT P6SM VCTS SCT050CB
     FM220600 21009KT P6SM FEW200=

USA.gov is the U.S. government's official web portal to all federal, state and local government web resources and services.